Allison Crosby — WDF2763 — position and weather

sailwx.info

Track history (hours):
 
Tides and Currents Weather Stations Pressure Air Temp Water Temp Dewpoint Dewpoint Depression Visibility Wind Speed Wind Dir Waves Ship Positions

Allison Crosby

Owner: Crosby Marine Transportation LLC, Golden Meadow, LA. More information available from US FCC via Universal Licensing System and Coast Guard Vessel Documentation Center.

Last reported at 2016-Jan-14 14:18 UTC. Time now 2016-Feb-09 20:34 UTC.
Position N 29°33' W 090°42'.
Warning: this ship's position is 26 days out of date.

Length 21 m; draft 4.1 m.

Type: Tow > 200 m length. MMSI: 367431620.

Date/timePositionNaut miles runAvg speedWind from/ knotsBaromVisibWave heightAir tempDewpointWater temp
2016-Jan-14 14:18N 29°33' W 090°42'0 0.0
2016-Jan-14 13:33N 29°33' W 090°42'0 0.0
2016-Jan-14 12:33N 29°33' W 090°42'0 0.0
2016-Jan-14 11:33N 29°33' W 090°42'0 0.0
2016-Jan-14 10:33N 29°33' W 090°42'0 0.0
2016-Jan-14 09:33N 29°33' W 090°42'0 0.0
2016-Jan-14 08:33N 29°33' W 090°42'0 0.0
2016-Jan-14 07:33N 29°33' W 090°42'0 0.0
2016-Jan-14 06:33N 29°33' W 090°42'0 0.0
2016-Jan-14 05:33N 29°33' W 090°42'0 0.0
2016-Jan-14 04:33N 29°33' W 090°42'0 0.0
2016-Jan-14 03:33N 29°33' W 090°42'0 0.0
2016-Jan-14 02:33N 29°33' W 090°42'0 0.0
2016-Jan-14 01:33N 29°33' W 090°42'0 0.0
2016-Jan-14 00:33N 29°33' W 090°42'0 0.0
2016-Jan-13 23:33N 29°33' W 090°42'0 0.0
2016-Jan-13 22:33N 29°33' W 090°42'0 0.1
2016-Jan-13 21:34N 29°33' W 090°42'4 3.6
2016-Jan-13 20:33N 29°29' W 090°43'4 3.7
2016-Jan-13 19:33N 29°26' W 090°43'33 1.0
2016-Jan-12 10:33N 29°07' W 090°12'  
2016-Jan-08 19:31N 29°46' W 093°21'4 4.1
2016-Jan-08 18:33N 29°50' W 093°21'6 5.8
2016-Jan-08 17:33N 29°55' W 093°20'6 6.3
2016-Jan-08 16:33N 30°02' W 093°20'4 4.1
2016-Jan-08 15:33N 30°06' W 093°20'0 0.1
2016-Jan-08 14:31N 30°06' W 093°20'0 0.0
2016-Jan-08 13:31N 30°06' W 093°20'0 0.0
2016-Jan-08 12:31N 30°06' W 093°20'0 0.0
2016-Jan-08 11:31N 30°06' W 093°20'0 0.0
2016-Jan-08 10:31N 30°06' W 093°20'0 0.0
2016-Jan-08 09:31N 30°06' W 093°20'0 0.0
2016-Jan-08 08:31N 30°06' W 093°20'0 0.0
2016-Jan-08 07:31N 30°06' W 093°20'0 0.0
2016-Jan-08 06:31N 30°06' W 093°20'0 0.0
2016-Jan-08 05:28N 30°06' W 093°20'0 0.0
2016-Jan-08 04:31N 30°06' W 093°20'0 0.0
2016-Jan-08 03:31N 30°06' W 093°20'0 0.0
2016-Jan-08 02:31N 30°06' W 093°20'0 0.0
2016-Jan-08 01:31N 30°06' W 093°20'0 0.0
2016-Jan-08 00:25N 30°06' W 093°20'0 0.0
2016-Jan-07 23:28N 30°06' W 093°20'0 0.0
2016-Jan-07 22:31N 30°06' W 093°20'0 0.0
2016-Jan-07 21:31N 30°06' W 093°20'7 7.4
2016-Jan-07 20:33N 29°59' W 093°20'9 9.1
2016-Jan-07 19:33N 29°50' W 093°21'3 0.8
2016-Jan-07 15:29N 29°46' W 093°21'0 0.0
2016-Jan-07 14:32N 29°46' W 093°21'0 0.0
2016-Jan-06 14:11N 29°46' W 093°21'0 0.0
2016-Jan-06 13:26N 29°46' W 093°21'0 0.0
2016-Jan-06 12:32N 29°46' W 093°21'0 0.0
2016-Jan-06 11:29N 29°46' W 093°21'0 0.0
2016-Jan-06 10:17N 29°46' W 093°21'0 0.0
2016-Jan-06 09:32N 29°46' W 093°21'0 0.0
2016-Jan-06 08:32N 29°46' W 093°21'0 0.0
2016-Jan-06 07:32N 29°46' W 093°21'0 0.0
2016-Jan-06 06:26N 29°46' W 093°21'0 0.0
2016-Jan-06 05:17N 29°46' W 093°21'0 0.0
2016-Jan-06 04:32N 29°46' W 093°21'0 0.0
2016-Jan-06 03:32N 29°46' W 093°21'0 0.0
2016-Jan-06 02:32N 29°46' W 093°21'0 0.0
2016-Jan-06 01:32N 29°46' W 093°21'0 0.0
2016-Jan-06 00:17N 29°46' W 093°21'0 0.0
2016-Jan-05 23:29N 29°46' W 093°21'0 0.0
2016-Jan-05 22:32N 29°46' W 093°21'0 0.0
2016-Jan-05 21:29N 29°46' W 093°21'0 0.0
2016-Jan-05 20:32N 29°46' W 093°21'0 0.0
2016-Jan-05 19:32N 29°46' W 093°21'0 0.0
2016-Jan-05 18:32N 29°46' W 093°21'0 0.0
2016-Jan-05 17:29N 29°46' W 093°21'0 0.0
2016-Jan-05 16:32N 29°46' W 093°21'0 0.0
2016-Jan-05 15:32N 29°46' W 093°21'0 0.0
2016-Jan-05 14:29N 29°46' W 093°21'0 0.0
2016-Jan-05 13:32N 29°46' W 093°21'0 0.0
2016-Jan-05 12:32N 29°46' W 093°21'0 0.0
2016-Jan-05 11:32N 29°46' W 093°21'0 0.0
2016-Jan-05 10:32N 29°46' W 093°21'0 0.0
2016-Jan-05 09:32N 29°46' W 093°21'0 0.0
2016-Jan-05 08:32N 29°46' W 093°21'0 0.0
2016-Jan-05 07:32N 29°46' W 093°21'0 0.0
2016-Jan-05 06:29N 29°46' W 093°21'0 0.0
2016-Jan-05 05:29N 29°46' W 093°21'0 0.0
2016-Jan-05 04:32N 29°46' W 093°21'0 0.0
2016-Jan-05 03:32N 29°46' W 093°21'0 0.0
2016-Jan-05 02:32N 29°46' W 093°21'0 0.0
2016-Jan-05 01:32N 29°46' W 093°21'0 0.0
2016-Jan-05 00:32N 29°46' W 093°21'0 0.0
2016-Jan-04 23:32N 29°46' W 093°21'0 0.0
2016-Jan-04 22:29N 29°46' W 093°21'0 0.0
2016-Jan-04 21:32N 29°46' W 093°21'0 0.0
2016-Jan-04 19:32N 29°46' W 093°21'0 0.0
2016-Jan-04 18:29N 29°46' W 093°21'0 0.0
2016-Jan-04 17:23N 29°46' W 093°21'0 0.0
2016-Jan-04 16:26N 29°46' W 093°21'0 0.0
2016-Jan-04 15:11N 29°46' W 093°21'0 0.0
2016-Jan-04 14:32N 29°46' W 093°21'  
Track history (hours):
 
Tides and Currents Weather Stations Pressure Air Temp Water Temp Dewpoint Dewpoint Depression Visibility Wind Speed Wind Dir Waves Ship Positions

Allison Crosby

Owner: Crosby Marine Transportation LLC, Golden Meadow, LA. More information available from US FCC via Universal Licensing System and Coast Guard Vessel Documentation Center.

Last reported at 2016-Jan-14 14:18 UTC. Time now 2016-Feb-09 20:34 UTC.
Position N 29°33' W 090°42'.
Warning: this ship's position is 26 days out of date.

Length 21 m; draft 4.1 m.

Type: Tow > 200 m length. MMSI: 367431620.

Date/timePositionNaut miles runAvg speedWind from/ knotsBaromVisibWave heightAir tempDewpointWater temp
2016-Jan-14 14:18N 29°33' W 090°42'0 0.0
2016-Jan-14 13:33N 29°33' W 090°42'0 0.0
2016-Jan-14 12:33N 29°33' W 090°42'0 0.0
2016-Jan-14 11:33N 29°33' W 090°42'0 0.0
2016-Jan-14 10:33N 29°33' W 090°42'0 0.0
2016-Jan-14 09:33N 29°33' W 090°42'0 0.0
2016-Jan-14 08:33N 29°33' W 090°42'0 0.0
2016-Jan-14 07:33N 29°33' W 090°42'0 0.0
2016-Jan-14 06:33N 29°33' W 090°42'0 0.0
2016-Jan-14 05:33N 29°33' W 090°42'0 0.0
2016-Jan-14 04:33N 29°33' W 090°42'0 0.0
2016-Jan-14 03:33N 29°33' W 090°42'0 0.0
2016-Jan-14 02:33N 29°33' W 090°42'0 0.0
2016-Jan-14 01:33N 29°33' W 090°42'0 0.0
2016-Jan-14 00:33N 29°33' W 090°42'0 0.0
2016-Jan-13 23:33N 29°33' W 090°42'0 0.0
2016-Jan-13 22:33N 29°33' W 090°42'0 0.1
2016-Jan-13 21:34N 29°33' W 090°42'4 3.6
2016-Jan-13 20:33N 29°29' W 090°43'4 3.7
2016-Jan-13 19:33N 29°26' W 090°43'33 1.0
2016-Jan-12 10:33N 29°07' W 090°12'  
2016-Jan-08 19:31N 29°46' W 093°21'4 4.1
2016-Jan-08 18:33N 29°50' W 093°21'6 5.8
2016-Jan-08 17:33N 29°55' W 093°20'6 6.3
2016-Jan-08 16:33N 30°02' W 093°20'4 4.1
2016-Jan-08 15:33N 30°06' W 093°20'0 0.1
2016-Jan-08 14:31N 30°06' W 093°20'0 0.0
2016-Jan-08 13:31N 30°06' W 093°20'0 0.0
2016-Jan-08 12:31N 30°06' W 093°20'0 0.0
2016-Jan-08 11:31N 30°06' W 093°20'0 0.0
2016-Jan-08 10:31N 30°06' W 093°20'0 0.0
2016-Jan-08 09:31N 30°06' W 093°20'0 0.0
2016-Jan-08 08:31N 30°06' W 093°20'0 0.0
2016-Jan-08 07:31N 30°06' W 093°20'0 0.0
2016-Jan-08 06:31N 30°06' W 093°20'0 0.0
2016-Jan-08 05:28N 30°06' W 093°20'0 0.0
2016-Jan-08 04:31N 30°06' W 093°20'0 0.0
2016-Jan-08 03:31N 30°06' W 093°20'0 0.0
2016-Jan-08 02:31N 30°06' W 093°20'0 0.0
2016-Jan-08 01:31N 30°06' W 093°20'0 0.0
2016-Jan-08 00:25N 30°06' W 093°20'0 0.0
2016-Jan-07 23:28N 30°06' W 093°20'0 0.0
2016-Jan-07 22:31N 30°06' W 093°20'0 0.0
2016-Jan-07 21:31N 30°06' W 093°20'7 7.4
2016-Jan-07 20:33N 29°59' W 093°20'9 9.1
2016-Jan-07 19:33N 29°50' W 093°21'3 0.8
2016-Jan-07 15:29N 29°46' W 093°21'0 0.0
2016-Jan-07 14:32N 29°46' W 093°21'0 0.0
2016-Jan-06 14:11N 29°46' W 093°21'0 0.0
2016-Jan-06 13:26N 29°46' W 093°21'0 0.0
2016-Jan-06 12:32N 29°46' W 093°21'0 0.0
2016-Jan-06 11:29N 29°46' W 093°21'0 0.0
2016-Jan-06 10:17N 29°46' W 093°21'0 0.0
2016-Jan-06 09:32N 29°46' W 093°21'0 0.0
2016-Jan-06 08:32N 29°46' W 093°21'0 0.0
2016-Jan-06 07:32N 29°46' W 093°21'0 0.0
2016-Jan-06 06:26N 29°46' W 093°21'0 0.0
2016-Jan-06 05:17N 29°46' W 093°21'0 0.0
2016-Jan-06 04:32N 29°46' W 093°21'0 0.0
2016-Jan-06 03:32N 29°46' W 093°21'0 0.0
2016-Jan-06 02:32N 29°46' W 093°21'0 0.0
2016-Jan-06 01:32N 29°46' W 093°21'0 0.0
2016-Jan-06 00:17N 29°46' W 093°21'0 0.0
2016-Jan-05 23:29N 29°46' W 093°21'0 0.0
2016-Jan-05 22:32N 29°46' W 093°21'0 0.0
2016-Jan-05 21:29N 29°46' W 093°21'0 0.0
2016-Jan-05 20:32N 29°46' W 093°21'0 0.0
2016-Jan-05 19:32N 29°46' W 093°21'0 0.0
2016-Jan-05 18:32N 29°46' W 093°21'0 0.0
2016-Jan-05 17:29N 29°46' W 093°21'0 0.0
2016-Jan-05 16:32N 29°46' W 093°21'0 0.0
2016-Jan-05 15:32N 29°46' W 093°21'0 0.0
2016-Jan-05 14:29N 29°46' W 093°21'0 0.0
2016-Jan-05 13:32N 29°46' W 093°21'0 0.0
2016-Jan-05 12:32N 29°46' W 093°21'0 0.0
2016-Jan-05 11:32N 29°46' W 093°21'0 0.0
2016-Jan-05 10:32N 29°46' W 093°21'0 0.0
2016-Jan-05 09:32N 29°46' W 093°21'0 0.0
2016-Jan-05 08:32N 29°46' W 093°21'0 0.0
2016-Jan-05 07:32N 29°46' W 093°21'0 0.0
2016-Jan-05 06:29N 29°46' W 093°21'0 0.0
2016-Jan-05 05:29N 29°46' W 093°21'0 0.0
2016-Jan-05 04:32N 29°46' W 093°21'0 0.0
2016-Jan-05 03:32N 29°46' W 093°21'0 0.0
2016-Jan-05 02:32N 29°46' W 093°21'0 0.0
2016-Jan-05 01:32N 29°46' W 093°21'0 0.0
2016-Jan-05 00:32N 29°46' W 093°21'0 0.0
2016-Jan-04 23:32N 29°46' W 093°21'0 0.0
2016-Jan-04 22:29N 29°46' W 093°21'0 0.0
2016-Jan-04 21:32N 29°46' W 093°21'0 0.0
2016-Jan-04 19:32N 29°46' W 093°21'0 0.0
2016-Jan-04 18:29N 29°46' W 093°21'0 0.0
2016-Jan-04 17:23N 29°46' W 093°21'0 0.0
2016-Jan-04 16:26N 29°46' W 093°21'0 0.0
2016-Jan-04 15:11N 29°46' W 093°21'0 0.0
2016-Jan-04 14:32N 29°46' W 093°21'  

Dump ship's entire track history